Time;durP1;ratioP1;P1;durP2;ratioP2;P2;SDS_P1;SDS_P2;PMS_P1;PMS_P2;Temp;Humidity;BMP_temperature;BMP_pressure;BME280_temperature;BME280_humidity;BME280_pressure;Samples;Min_cycle;Max_cycle;Signal;HPM_P1;HPM_P2
2023/11/25 00:02:22;;;;;;;;;;;19.30;66.40;;;;;;4999574;28;1914;-71
2023/11/25 00:04:49;;;;;;;;;;;19.30;66.50;;;;;;4999354;28;1376;-71
2023/11/25 00:07:14;;;;;;;;;;;19.30;66.50;;;;;;4999954;28;1304;-70
2023/11/25 00:09:39;;;;;;;;;;;19.30;66.50;;;;;;5001814;28;1681;-71
2023/11/25 00:12:05;;;;;;;;;;;19.30;66.50;;;;;;5000450;28;1153;-71
2023/11/25 00:14:31;;;;;;;;;;;19.30;66.50;;;;;;5000727;28;1548;-71
2023/11/25 00:16:56;;;;;;;;;;;19.30;66.50;;;;;;4999337;28;1155;-71
2023/11/25 00:19:22;;;;;;;;;;;19.30;66.50;;;;;;4989392;28;1288;-71
2023/11/25 00:21:47;;;;;;;;;;;19.30;66.60;;;;;;5002952;28;1975;-71
2023/11/25 00:24:13;;;;;;;;;;;19.30;66.50;;;;;;5002284;28;1280;-70
2023/11/25 00:26:38;;;;;;;;;;;19.30;66.50;;;;;;4988792;28;1096;-71
2023/11/25 00:29:04;;;;;;;;;;;19.30;66.50;;;;;;5001139;28;1316;-70
2023/11/25 00:31:29;;;;;;;;;;;19.30;66.50;;;;;;4984230;28;1004;-71
2023/11/25 00:33:54;;;;;;;;;;;19.30;66.60;;;;;;4983662;28;1476;-71
2023/11/25 00:36:20;;;;;;;;;;;19.30;66.50;;;;;;5002531;28;1175;-70
2023/11/25 00:38:46;;;;;;;;;;;19.30;66.70;;;;;;5001426;28;1245;-71
2023/11/25 00:41:12;;;;;;;;;;;19.30;66.60;;;;;;5001201;28;1910;-71
2023/11/25 00:43:38;;;;;;;;;;;19.30;66.60;;;;;;4999883;28;1450;-71
2023/11/25 00:46:03;;;;;;;;;;;19.30;66.70;;;;;;5000772;28;1448;-71
2023/11/25 00:48:31;;;;;;;;;;;19.30;66.60;;;;;;4997991;28;1701;-71
2023/11/25 00:50:57;;;;;;;;;;;19.30;66.60;;;;;;5000276;28;1707;-71
2023/11/25 00:53:23;;;;;;;;;;;19.30;66.60;;;;;;4986565;28;1324;-71
2023/11/25 00:55:48;;;;;;;;;;;19.30;66.70;;;;;;4999855;28;1292;-71
2023/11/25 00:58:14;;;;;;;;;;;19.30;66.70;;;;;;5002040;28;1450;-71
2023/11/25 01:00:39;;;;;;;;;;;19.30;66.60;;;;;;5003751;28;1926;-71
2023/11/25 01:03:06;;;;;;;;;;;19.30;66.70;;;;;;5003609;28;1515;-70
2023/11/25 01:05:32;;;;;;;;;;;19.30;66.70;;;;;;5004265;28;1446;-70
2023/11/25 01:07:57;;;;;;;;;;;19.30;66.70;;;;;;4977623;28;1448;-71
2023/11/25 01:10:23;;;;;;;;;;;19.30;66.70;;;;;;5003776;28;1478;-70
2023/11/25 01:12:48;;;;;;;;;;;19.30;66.70;;;;;;5005267;28;1528;-70
2023/11/25 01:15:15;;;;;;;;;;;19.30;66.70;;;;;;5003490;28;1359;-71
2023/11/25 01:17:40;;;;;;;;;;;19.30;66.80;;;;;;5004651;28;1425;-71
2023/11/25 01:20:06;;;;;;;;;;;19.30;66.70;;;;;;5004233;28;1537;-71
2023/11/25 01:22:32;;;;;;;;;;;19.30;66.70;;;;;;4999046;28;1910;-71
2023/11/25 01:24:57;;;;;;;;;;;19.30;66.70;;;;;;4993121;28;1587;-71
2023/11/25 01:27:23;;;;;;;;;;;19.30;66.70;;;;;;5002411;28;1336;-70
2023/11/25 01:29:49;;;;;;;;;;;19.30;66.70;;;;;;5006591;28;1329;-70
2023/11/25 01:32:14;;;;;;;;;;;19.30;66.70;;;;;;5003214;28;1409;-70
2023/11/25 01:34:40;;;;;;;;;;;19.30;66.70;;;;;;5002397;28;1260;-70
2023/11/25 01:37:05;;;;;;;;;;;19.30;66.80;;;;;;5000168;28;1325;-70
2023/11/25 01:39:31;;;;;;;;;;;19.20;66.70;;;;;;5002187;28;1309;-70
2023/11/25 01:41:56;;;;;;;;;;;19.30;66.80;;;;;;5004108;28;2291;-70
2023/11/25 01:44:22;;;;;;;;;;;19.30;66.80;;;;;;5002624;28;1366;-70
2023/11/25 01:46:47;;;;;;;;;;;19.20;66.70;;;;;;5002582;28;1345;-70
2023/11/25 01:49:14;;;;;;;;;;;19.30;66.80;;;;;;4987497;28;1281;-70
2023/11/25 01:51:43;;;;;;;;;;;19.20;66.70;;;;;;4999693;28;1444;-70
2023/11/25 01:54:09;;;;;;;;;;;19.30;66.80;;;;;;5002033;28;1439;-70
2023/11/25 01:56:34;;;;;;;;;;;19.20;66.80;;;;;;4991634;28;1480;-70
2023/11/25 01:59:00;;;;;;;;;;;19.20;66.70;;;;;;4997521;28;1543;-70
2023/11/25 02:01:26;;;;;;;;;;;19.20;66.80;;;;;;5002197;28;1961;-70
2023/11/25 02:03:51;;;;;;;;;;;19.30;66.80;;;;;;5000144;28;1535;-70
2023/11/25 02:06:17;;;;;;;;;;;19.30;66.80;;;;;;5003032;28;1359;-70
2023/11/25 02:08:43;;;;;;;;;;;19.30;66.90;;;;;;5003191;28;1561;-70
2023/11/25 02:11:08;;;;;;;;;;;19.20;66.80;;;;;;4992753;28;1460;-71
2023/11/25 02:13:34;;;;;;;;;;;19.20;66.80;;;;;;5002995;28;1608;-70
2023/11/25 02:15:59;;;;;;;;;;;19.20;66.80;;;;;;5002507;28;1261;-70
2023/11/25 02:18:25;;;;;;;;;;;19.20;66.80;;;;;;5000005;28;1410;-70
2023/11/25 02:20:50;;;;;;;;;;;19.20;66.80;;;;;;5002050;28;1958;-70
2023/11/25 02:23:19;;;;;;;;;;;19.20;66.70;;;;;;4991353;28;1448;-70
2023/11/25 02:25:48;;;;;;;;;;;19.30;66.80;;;;;;4985153;28;1425;-70
2023/11/25 02:28:19;;;;;;;;;;;19.30;66.80;;;;;;5002335;28;1574;-69
2023/11/25 02:30:46;;;;;;;;;;;19.20;66.70;;;;;;4989486;28;1329;-71
2023/11/25 02:33:14;;;;;;;;;;;19.30;66.80;;;;;;5000338;28;1428;-72
2023/11/25 02:35:40;;;;;;;;;;;19.20;66.70;;;;;;5003070;28;1468;-71
2023/11/25 02:38:05;;;;;;;;;;;19.20;66.70;;;;;;5003966;28;1317;-70
2023/11/25 02:40:31;;;;;;;;;;;19.20;66.70;;;;;;5000282;28;1906;-70
2023/11/25 02:42:57;;;;;;;;;;;19.30;66.70;;;;;;5002684;28;1382;-69
2023/11/25 02:45:22;;;;;;;;;;;19.30;66.70;;;;;;5002450;28;1347;-68
2023/11/25 02:47:48;;;;;;;;;;;19.30;66.70;;;;;;5001691;28;1511;-69
2023/11/25 02:50:17;;;;;;;;;;;19.30;66.70;;;;;;5004378;28;1458;-69
2023/11/25 02:52:43;;;;;;;;;;;19.30;66.70;;;;;;5000061;28;1445;-69
2023/11/25 02:55:11;;;;;;;;;;;19.30;66.70;;;;;;5000796;28;1363;-69
2023/11/25 02:57:45;;;;;;;;;;;19.30;66.70;;;;;;5000285;28;1339;-69
2023/11/25 03:00:16;;;;;;;;;;;19.30;66.70;;;;;;5003528;28;1363;-69
2023/11/25 03:02:42;;;;;;;;;;;19.30;66.70;;;;;;4991206;28;1968;-70
2023/11/25 03:05:08;;;;;;;;;;;19.30;66.70;;;;;;4991940;28;1281;-71
2023/11/25 03:07:35;;;;;;;;;;;19.30;66.70;;;;;;5001306;28;1243;-71
2023/11/25 03:10:01;;;;;;;;;;;19.30;66.70;;;;;;5002845;28;1064;-71
2023/11/25 03:12:27;;;;;;;;;;;19.30;66.70;;;;;;4984281;28;1574;-71
2023/11/25 03:14:52;;;;;;;;;;;19.30;66.70;;;;;;4998439;28;1388;-71
2023/11/25 03:17:18;;;;;;;;;;;19.30;66.70;;;;;;5000996;28;1608;-70
2023/11/25 03:19:44;;;;;;;;;;;19.30;66.70;;;;;;5001463;28;1363;-70
2023/11/25 03:22:10;;;;;;;;;;;19.20;66.70;;;;;;5002840;28;1990;-70
2023/11/25 03:24:35;;;;;;;;;;;19.30;66.70;;;;;;5001411;28;1372;-71
2023/11/25 03:27:02;;;;;;;;;;;19.20;66.60;;;;;;5002770;28;1388;-70
2023/11/25 03:29:27;;;;;;;;;;;19.20;66.70;;;;;;4985787;28;1265;-70
2023/11/25 03:31:53;;;;;;;;;;;19.20;66.70;;;;;;5001155;28;1312;-70
2023/11/25 03:34:18;;;;;;;;;;;19.20;66.70;;;;;;5001093;28;1350;-69
2023/11/25 03:36:44;;;;;;;;;;;19.20;66.70;;;;;;5002216;28;1684;-70
2023/11/25 03:39:09;;;;;;;;;;;19.20;66.70;;;;;;5000435;28;1035;-71
2023/11/25 03:41:35;;;;;;;;;;;19.20;66.70;;;;;;5003255;28;1970;-72
2023/11/25 03:44:01;;;;;;;;;;;19.30;66.80;;;;;;4991542;28;1320;-72
2023/11/25 03:46:27;;;;;;;;;;;19.20;66.70;;;;;;4988815;28;1474;-71
2023/11/25 03:48:53;;;;;;;;;;;19.20;66.70;;;;;;4998625;28;1392;-71
2023/11/25 03:51:19;;;;;;;;;;;19.30;66.80;;;;;;4997349;28;1362;-71
2023/11/25 03:53:45;;;;;;;;;;;19.20;66.80;;;;;;4998620;28;1229;-71
2023/11/25 03:56:13;;;;;;;;;;;19.20;66.80;;;;;;5002219;28;1470;-71
2023/11/25 03:58:39;;;;;;;;;;;19.20;66.80;;;;;;4998635;28;1489;-71
2023/11/25 04:01:04;;;;;;;;;;;19.20;66.80;;;;;;5000875;28;1911;-71
2023/11/25 04:03:35;;;;;;;;;;;19.20;66.80;;;;;;4989268;28;1532;-71
2023/11/25 04:06:01;;;;;;;;;;;19.20;66.80;;;;;;5000757;28;1512;-71
2023/11/25 04:08:27;;;;;;;;;;;19.20;66.80;;;;;;4980750;28;1527;-71
2023/11/25 04:10:52;;;;;;;;;;;19.20;66.80;;;;;;4999797;28;1464;-71
2023/11/25 04:13:18;;;;;;;;;;;19.20;66.80;;;;;;5001738;28;1358;-71
2023/11/25 04:15:43;;;;;;;;;;;19.20;66.80;;;;;;4987588;28;1597;-71
2023/11/25 04:18:09;;;;;;;;;;;19.20;66.70;;;;;;4998656;28;1434;-72
2023/11/25 04:20:34;;;;;;;;;;;19.30;66.70;;;;;;5001157;28;1902;-72
2023/11/25 04:23:05;;;;;;;;;;;19.30;66.50;;;;;;5002022;28;1446;-72
2023/11/25 04:25:31;;;;;;;;;;;19.30;66.40;;;;;;4989890;28;1694;-71
2023/11/25 04:27:56;;;;;;;;;;;19.40;66.30;;;;;;4991062;28;1472;-71
2023/11/25 04:30:22;;;;;;;;;;;19.40;66.10;;;;;;5003890;28;1396;-72
2023/11/25 04:32:48;;;;;;;;;;;19.50;66.10;;;;;;5006823;28;1307;-70
2023/11/25 04:35:17;;;;;;;;;;;19.50;65.90;;;;;;4992131;28;1384;-70
2023/11/25 04:37:46;;;;;;;;;;;19.50;65.80;;;;;;5003487;28;1605;-70
2023/11/25 04:40:11;;;;;;;;;;;19.50;65.70;;;;;;4987076;28;1276;-71
2023/11/25 04:42:37;;;;;;;;;;;19.60;65.60;;;;;;4992403;28;1902;-70
2023/11/25 04:45:03;;;;;;;;;;;19.60;65.50;;;;;;4994942;28;1304;-70
2023/11/25 04:47:28;;;;;;;;;;;19.60;65.40;;;;;;5004909;28;1443;-70
2023/11/25 04:49:54;;;;;;;;;;;19.60;65.40;;;;;;5005316;28;1597;-70
2023/11/25 04:52:20;;;;;;;;;;;19.60;65.40;;;;;;5006680;28;1184;-70
2023/11/25 04:54:46;;;;;;;;;;;19.60;65.30;;;;;;5003783;28;1493;-70
2023/11/25 04:57:12;;;;;;;;;;;19.60;65.20;;;;;;4991464;28;1364;-71
2023/11/25 04:59:38;;;;;;;;;;;19.60;65.20;;;;;;5002861;28;1522;-70
2023/11/25 05:02:04;;;;;;;;;;;19.70;65.30;;;;;;5004935;28;1981;-71
2023/11/25 05:04:30;;;;;;;;;;;19.70;65.30;;;;;;5002995;28;1372;-70
2023/11/25 05:06:56;;;;;;;;;;;19.70;65.20;;;;;;5003909;28;1389;-70
2023/11/25 05:09:24;;;;;;;;;;;19.70;65.20;;;;;;5002157;28;1357;-70
2023/11/25 05:11:49;;;;;;;;;;;19.70;65.20;;;;;;5003742;28;2127;-71
2023/11/25 05:14:15;;;;;;;;;;;19.60;65.10;;;;;;4984309;28;1455;-71
2023/11/25 05:16:40;;;;;;;;;;;19.70;65.20;;;;;;5001802;28;1443;-71
2023/11/25 05:19:05;;;;;;;;;;;19.70;65.20;;;;;;5003718;28;1437;-70
2023/11/25 05:21:31;;;;;;;;;;;19.70;65.20;;;;;;5002108;28;1894;-70
2023/11/25 05:23:56;;;;;;;;;;;19.70;65.10;;;;;;5004209;28;1332;-70
2023/11/25 05:26:23;;;;;;;;;;;19.70;65.10;;;;;;5002238;28;1458;-71
2023/11/25 05:28:48;;;;;;;;;;;19.70;65.10;;;;;;5001883;28;1289;-71
2023/11/25 05:31:14;;;;;;;;;;;19.70;65.10;;;;;;5007425;28;1415;-71
2023/11/25 05:33:39;;;;;;;;;;;19.70;65.10;;;;;;5001688;28;987;-71
2023/11/25 05:36:05;;;;;;;;;;;19.70;65.00;;;;;;5001734;28;1261;-71
2023/11/25 05:38:30;;;;;;;;;;;19.70;65.10;;;;;;5002429;28;1249;-71
2023/11/25 05:40:57;;;;;;;;;;;19.70;65.10;;;;;;5002341;28;1996;-71
2023/11/25 05:43:24;;;;;;;;;;;19.70;65.00;;;;;;5002014;28;1360;-71
2023/11/25 05:45:50;;;;;;;;;;;19.70;65.00;;;;;;5004363;28;1265;-70
2023/11/25 05:48:17;;;;;;;;;;;19.70;65.00;;;;;;5001866;28;1373;-71
2023/11/25 05:50:42;;;;;;;;;;;19.70;65.00;;;;;;5004420;28;4908;-71
2023/11/25 05:53:08;;;;;;;;;;;19.70;65.00;;;;;;5003427;28;1179;-71
2023/11/25 05:55:33;;;;;;;;;;;19.70;65.00;;;;;;5004498;28;1412;-71
2023/11/25 05:57:59;;;;;;;;;;;19.70;65.00;;;;;;5001181;28;1241;-71
2023/11/25 06:00:24;;;;;;;;;;;19.70;65.00;;;;;;5003174;28;1434;-71
2023/11/25 06:02:51;;;;;;;;;;;19.70;65.00;;;;;;5001065;28;1971;-71
2023/11/25 06:05:17;;;;;;;;;;;19.70;65.00;;;;;;4985511;28;1615;-71
2023/11/25 06:07:43;;;;;;;;;;;19.70;65.00;;;;;;5002529;28;1669;-71
2023/11/25 06:10:09;;;;;;;;;;;19.70;65.00;;;;;;5003367;28;1300;-70
2023/11/25 06:12:35;;;;;;;;;;;19.70;65.00;;;;;;4985148;28;1476;-71
2023/11/25 06:15:00;;;;;;;;;;;19.70;65.00;;;;;;5002206;28;1339;-71
2023/11/25 06:17:26;;;;;;;;;;;19.70;65.00;;;;;;4990813;28;1640;-71
2023/11/25 06:19:52;;;;;;;;;;;19.70;65.00;;;;;;5003580;28;1274;-71
2023/11/25 06:22:17;;;;;;;;;;;19.70;65.00;;;;;;5005414;28;1971;-71
2023/11/25 06:24:43;;;;;;;;;;;19.70;65.00;;;;;;5002270;28;1706;-71
2023/11/25 06:27:08;;;;;;;;;;;19.70;65.00;;;;;;5005008;28;1606;-75
2023/11/25 06:29:34;;;;;;;;;;;19.70;65.00;;;;;;4996058;28;2438;-74
2023/11/25 06:31:59;;;;;;;;;;;19.70;65.00;;;;;;4985071;28;1202;-72
2023/11/25 06:34:24;;;;;;;;;;;19.70;65.00;;;;;;5002605;28;1319;-74
2023/11/25 06:36:52;;;;;;;;;;;19.70;65.00;;;;;;4985549;28;1849;-74
2023/11/25 06:39:20;;;;;;;;;;;19.70;65.10;;;;;;5003408;28;1195;-72
2023/11/25 06:41:48;;;;;;;;;;;19.70;65.00;;;;;;4999944;28;1938;-70
2023/11/25 06:44:17;;;;;;;;;;;19.70;65.00;;;;;;4989368;28;1394;-73
2023/11/25 06:46:43;;;;;;;;;;;19.70;65.00;;;;;;4990321;28;1374;-72
2023/11/25 06:49:09;;;;;;;;;;;19.70;65.00;;;;;;5001591;28;1495;-72
2023/11/25 06:51:34;;;;;;;;;;;19.70;65.00;;;;;;4985032;28;1443;-73
2023/11/25 06:54:00;;;;;;;;;;;19.70;65.00;;;;;;4997673;28;1542;-71
2023/11/25 06:56:26;;;;;;;;;;;19.70;65.00;;;;;;4986220;28;1395;-71
2023/11/25 06:58:52;;;;;;;;;;;19.70;64.90;;;;;;4999621;28;821;-73
2023/11/25 07:01:21;;;;;;;;;;;19.70;64.90;;;;;;4998675;28;1914;-70
2023/11/25 07:03:47;;;;;;;;;;;19.70;64.90;;;;;;5001030;28;1418;-71
2023/11/25 07:06:13;;;;;;;;;;;19.70;65.00;;;;;;4999434;28;1650;-74
2023/11/25 07:08:39;;;;;;;;;;;19.70;64.90;;;;;;5008648;28;1526;-73
2023/11/25 07:11:10;;;;;;;;;;;19.70;64.90;;;;;;4984754;28;1444;-72
2023/11/25 07:13:35;;;;;;;;;;;19.70;64.90;;;;;;5003040;28;2112;-71
2023/11/25 07:16:02;;;;;;;;;;;19.70;64.90;;;;;;5000043;28;1453;-70
2023/11/25 07:18:27;;;;;;;;;;;19.70;64.90;;;;;;5001757;28;1363;-70
2023/11/25 07:20:53;;;;;;;;;;;19.70;65.00;;;;;;5001361;28;1914;-70
2023/11/25 07:23:18;;;;;;;;;;;19.70;65.00;;;;;;5004525;28;1367;-70
2023/11/25 07:25:45;;;;;;;;;;;19.70;65.00;;;;;;5001841;28;1715;-69
2023/11/25 07:28:11;;;;;;;;;;;19.70;65.00;;;;;;4989447;28;1226;-69
2023/11/25 07:30:36;;;;;;;;;;;19.70;65.00;;;;;;4999440;28;1381;-70
2023/11/25 07:33:03;;;;;;;;;;;19.70;65.00;;;;;;5001222;28;1540;-71
2023/11/25 07:35:29;;;;;;;;;;;19.70;65.00;;;;;;5002249;28;1376;-71
2023/11/25 07:37:54;;;;;;;;;;;19.70;65.10;;;;;;4982993;28;1415;-71
2023/11/25 07:40:20;;;;;;;;;;;19.70;65.10;;;;;;4998570;28;1400;-72
2023/11/25 07:42:48;;;;;;;;;;;19.70;65.10;;;;;;4977364;28;1930;-78
2023/11/25 07:45:14;;;;;;;;;;;19.60;65.10;;;;;;5000213;28;1479;-69
2023/11/25 07:47:43;;;;;;;;;;;19.70;65.20;;;;;;4998081;28;1417;-69
2023/11/25 07:50:09;;;;;;;;;;;19.60;65.20;;;;;;5001473;28;1348;-73
2023/11/25 07:52:35;;;;;;;;;;;19.60;65.10;;;;;;5001047;28;1426;-70
2023/11/25 07:55:00;;;;;;;;;;;19.60;65.20;;;;;;5002963;28;1953;-72
2023/11/25 07:57:26;;;;;;;;;;;19.60;65.20;;;;;;5001222;28;1434;-72
2023/11/25 07:59:52;;;;;;;;;;;19.60;65.20;;;;;;5001227;28;1559;-72
2023/11/25 08:02:18;;;;;;;;;;;19.60;65.30;;;;;;5001747;28;2142;-72
2023/11/25 08:04:44;;;;;;;;;;;19.60;65.30;;;;;;4998381;28;1419;-72
2023/11/25 08:07:11;;;;;;;;;;;19.60;65.30;;;;;;5001905;28;1448;-72
2023/11/25 08:09:37;;;;;;;;;;;19.60;65.30;;;;;;5001999;28;1933;-72
2023/11/25 08:12:03;;;;;;;;;;;19.60;65.40;;;;;;4989406;28;1373;-72
2023/11/25 08:14:29;;;;;;;;;;;19.60;65.40;;;;;;4999797;28;1379;-72
2023/11/25 08:16:55;;;;;;;;;;;19.60;65.40;;;;;;4999721;28;1413;-72
2023/11/25 08:19:24;;;;;;;;;;;19.60;65.40;;;;;;5002197;28;1434;-72
2023/11/25 08:21:49;;;;;;;;;;;19.60;65.40;;;;;;4998129;28;1902;-72
2023/11/25 08:24:17;;;;;;;;;;;19.60;65.40;;;;;;4999484;28;1293;-72
2023/11/25 08:26:43;;;;;;;;;;;19.60;65.40;;;;;;4991885;28;1349;-72
2023/11/25 08:29:08;;;;;;;;;;;19.60;65.40;;;;;;4999728;28;1852;-72
2023/11/25 08:31:34;;;;;;;;;;;19.60;65.50;;;;;;5005530;28;1524;-72
2023/11/25 08:34:09;;;;;;;;;;;19.50;65.40;;;;;;5002138;28;1624;-72
2023/11/25 08:36:53;;;;;;;;;;;19.50;65.50;;;;;;4985721;28;1335;-72
2023/11/25 08:39:21;;;;;;;;;;;19.50;65.50;;;;;;4999008;28;1439;-72
2023/11/25 08:41:46;;;;;;;;;;;19.50;65.50;;;;;;4996942;28;1965;-72
2023/11/25 08:44:15;;;;;;;;;;;19.50;65.50;;;;;;5002032;28;1369;-72
2023/11/25 08:46:42;;;;;;;;;;;19.50;65.60;;;;;;4998522;28;1252;-72
2023/11/25 08:49:10;;;;;;;;;;;19.50;65.60;;;;;;4964954;28;1369;-72
2023/11/25 08:51:36;;;;;;;;;;;19.50;65.60;;;;;;4999599;28;1557;-72
2023/11/25 08:54:02;;;;;;;;;;;19.50;65.60;;;;;;4996967;28;1455;-72
2023/11/25 08:56:31;;;;;;;;;;;19.50;65.70;;;;;;4984149;28;1382;-71
2023/11/25 08:58:58;;;;;;;;;;;19.50;65.60;;;;;;4985489;28;1473;-71
2023/11/25 09:01:26;;;;;;;;;;;19.50;65.60;;;;;;4990095;28;1968;-71
2023/11/25 09:03:51;;;;;;;;;;;19.50;65.70;;;;;;5002642;28;1502;-71
2023/11/25 09:06:17;;;;;;;;;;;19.50;65.70;;;;;;5000647;28;1411;-73
2023/11/25 09:08:44;;;;;;;;;;;19.50;65.70;;;;;;5000134;28;1442;-72
2023/11/25 09:11:09;;;;;;;;;;;19.50;65.70;;;;;;5003143;28;1345;-71
2023/11/25 09:13:35;;;;;;;;;;;19.50;65.70;;;;;;5002988;28;1547;-71
2023/11/25 09:16:01;;;;;;;;;;;19.50;65.70;;;;;;5003003;28;1442;-71
2023/11/25 09:18:27;;;;;;;;;;;19.50;65.70;;;;;;5003790;28;1446;-71
2023/11/25 09:20:52;;;;;;;;;;;19.50;65.80;;;;;;5003607;28;1965;-71
2023/11/25 09:23:18;;;;;;;;;;;19.50;65.80;;;;;;5007307;28;1404;-71
2023/11/25 09:25:43;;;;;;;;;;;19.50;65.80;;;;;;5005334;28;1475;-71
2023/11/25 09:28:09;;;;;;;;;;;19.50;65.80;;;;;;5004803;28;1588;-71
2023/11/25 09:30:34;;;;;;;;;;;19.50;65.80;;;;;;4992868;28;1336;-70
2023/11/25 09:33:00;;;;;;;;;;;19.50;65.80;;;;;;5006260;28;1387;-72
2023/11/25 09:35:26;;;;;;;;;;;19.50;65.90;;;;;;5001439;28;1420;-72
2023/11/25 09:37:51;;;;;;;;;;;19.50;65.90;;;;;;5004133;28;1675;-71
2023/11/25 09:40:19;;;;;;;;;;;19.40;65.80;;;;;;5000043;28;1737;-71
2023/11/25 09:42:45;;;;;;;;;;;19.40;65.80;;;;;;5000593;28;1962;-71
2023/11/25 09:45:10;;;;;;;;;;;19.40;65.90;;;;;;4985232;28;1497;-72
2023/11/25 09:47:39;;;;;;;;;;;19.40;65.90;;;;;;5004175;28;1306;-71
2023/11/25 09:50:11;;;;;;;;;;;19.40;65.90;;;;;;4992750;28;1050;-72
2023/11/25 09:52:56;;;;;;;;;;;19.40;65.90;;;;;;5006128;28;1422;-71
2023/11/25 09:55:22;;;;;;;;;;;19.40;65.90;;;;;;5002563;28;1707;-71
2023/11/25 09:57:49;;;;;;;;;;;19.40;65.90;;;;;;4992457;28;1791;-71
2023/11/25 10:00:21;;;;;;;;;;;19.40;65.90;;;;;;4986932;28;1200;-71
2023/11/25 10:02:57;;;;;;;;;;;19.40;66.00;;;;;;4991943;28;1962;-71
2023/11/25 10:05:22;;;;;;;;;;;19.40;66.00;;;;;;4984643;28;1364;-71
2023/11/25 10:07:47;;;;;;;;;;;19.40;66.00;;;;;;5004866;28;1212;-71
2023/11/25 10:10:23;;;;;;;;;;;19.40;66.00;;;;;;4993057;28;1462;-71
2023/11/25 10:12:51;;;;;;;;;;;19.40;66.00;;;;;;5005484;28;1284;-71
2023/11/25 10:15:17;;;;;;;;;;;19.40;66.00;;;;;;4981351;28;1376;-71
2023/11/25 10:17:44;;;;;;;;;;;19.40;66.00;;;;;;5002978;28;1450;-71
2023/11/25 10:20:10;;;;;;;;;;;19.40;66.00;;;;;;4992116;28;1309;-71
2023/11/25 10:22:43;;;;;;;;;;;19.40;66.00;;;;;;4992685;28;1906;-71
2023/11/25 10:25:09;;;;;;;;;;;19.40;66.00;;;;;;4975045;28;1399;-71
2023/11/25 10:27:34;;;;;;;;;;;19.40;66.00;;;;;;5007708;28;1548;-71
2023/11/25 10:30:02;;;;;;;;;;;19.40;66.00;;;;;;4993743;28;1302;-72
2023/11/25 10:32:28;;;;;;;;;;;19.40;66.00;;;;;;4993943;28;1523;-71
2023/11/25 10:34:56;;;;;;;;;;;19.40;66.10;;;;;;5003290;28;1248;-73
2023/11/25 10:37:21;;;;;;;;;;;19.40;66.10;;;;;;5002235;28;1794;-72
2023/11/25 10:39:47;;;;;;;;;;;19.40;66.10;;;;;;4992302;28;1341;-71
2023/11/25 10:42:13;;;;;;;;;;;19.40;66.10;;;;;;5000187;28;1914;-72
2023/11/25 10:44:39;;;;;;;;;;;19.40;66.10;;;;;;4999960;28;1633;-72
2023/11/25 10:47:05;;;;;;;;;;;19.40;66.10;;;;;;4984599;28;1129;-71
2023/11/25 10:49:36;;;;;;;;;;;19.40;66.10;;;;;;4993427;28;1157;-71
2023/11/25 10:52:03;;;;;;;;;;;19.40;66.10;;;;;;4992615;28;1573;-72
2023/11/25 10:54:31;;;;;;;;;;;19.40;66.10;;;;;;4990801;28;1411;-71
2023/11/25 10:56:59;;;;;;;;;;;19.40;66.20;;;;;;5002759;28;1110;-71
2023/11/25 10:59:25;;;;;;;;;;;19.30;66.10;;;;;;4982730;28;1403;-70
2023/11/25 11:01:51;;;;;;;;;;;19.40;66.20;;;;;;4992100;28;1911;-71
2023/11/25 11:04:37;;;;;;;;;;;19.30;66.10;;;;;;4990974;28;1209;-71
2023/11/25 11:07:04;;;;;;;;;;;19.30;66.20;;;;;;4992774;28;1201;-72
2023/11/25 11:09:30;;;;;;;;;;;19.40;66.20;;;;;;4985443;28;1235;-71
2023/11/25 11:12:03;;;;;;;;;;;19.30;66.10;;;;;;5002275;28;1261;-72
2023/11/25 11:14:29;;;;;;;;;;;19.30;66.10;;;;;;4992402;28;1317;-71
2023/11/25 11:17:03;;;;;;;;;;;19.30;66.10;;;;;;4984756;28;1149;-71
2023/11/25 11:19:34;;;;;;;;;;;19.30;66.20;;;;;;5004456;28;1306;-71
2023/11/25 11:22:03;;;;;;;;;;;19.40;66.20;;;;;;5002724;28;1894;-70
2023/11/25 11:24:31;;;;;;;;;;;19.30;66.10;;;;;;5000848;28;1292;-71
2023/11/25 11:27:06;;;;;;;;;;;19.40;66.20;;;;;;4982396;28;857;-73
2023/11/25 11:29:52;;;;;;;;;;;19.30;66.10;;;;;;5003760;28;1183;-71
2023/11/25 11:32:19;;;;;;;;;;;19.30;66.10;;;;;;4999641;28;1085;-72
2023/11/25 11:34:45;;;;;;;;;;;19.40;66.10;;;;;;4988560;28;1423;-71
2023/11/25 11:37:10;;;;;;;;;;;19.40;66.10;;;;;;5006295;28;1289;-71
2023/11/25 11:39:51;;;;;;;;;;;19.40;66.10;;;;;;5006468;28;1274;-71
2023/11/25 11:42:19;;;;;;;;;;;19.40;66.00;;;;;;5003598;28;1965;-71
2023/11/25 11:47:38;;;;;;;;;;;19.40;65.90;;;;;;5004606;28;1283;-71
2023/11/25 11:50:08;;;;;;;;;;;19.40;65.80;;;;;;5002664;28;1334;-73
2023/11/25 11:52:36;;;;;;;;;;;19.50;65.80;;;;;;5003452;28;852;-72
2023/11/25 11:55:20;;;;;;;;;;;19.50;65.70;;;;;;4988373;28;1315;-72
2023/11/25 11:58:21;;;;;;;;;;;19.50;65.60;;;;;;5006103;28;1486;-72
2023/11/25 12:00:56;;;;;;;;;;;19.50;65.60;;;;;;4969123;28;1401;-70
2023/11/25 12:03:22;;;;;;;;;;;19.50;65.50;;;;;;4997227;28;1344;-71
2023/11/25 12:05:47;;;;;;;;;;;19.50;65.50;;;;;;5004502;28;1716;-72
2023/11/25 12:08:13;;;;;;;;;;;19.60;65.50;;;;;;5004343;28;1966;-72
2023/11/25 12:10:38;;;;;;;;;;;19.60;65.40;;;;;;5004294;28;1243;-73
2023/11/25 12:13:04;;;;;;;;;;;19.60;65.40;;;;;;5003404;28;1882;-71
2023/11/25 12:15:33;;;;;;;;;;;19.60;65.40;;;;;;4991294;28;1599;-72
2023/11/25 12:17:58;;;;;;;;;;;19.60;65.30;;;;;;5001400;28;1358;-71
2023/11/25 12:20:27;;;;;;;;;;;19.60;65.30;;;;;;4989412;28;1419;-71
2023/11/25 12:22:53;;;;;;;;;;;19.60;65.30;;;;;;4991724;28;2265;-71
2023/11/25 12:25:19;;;;;;;;;;;19.60;65.30;;;;;;4987579;28;1355;-71
2023/11/25 12:27:44;;;;;;;;;;;19.60;65.30;;;;;;5000531;28;1659;-71
2023/11/25 12:30:10;;;;;;;;;;;19.60;65.20;;;;;;5002670;28;1480;-71
2023/11/25 12:32:37;;;;;;;;;;;19.60;65.20;;;;;;5001739;28;1268;-71
2023/11/25 12:35:04;;;;;;;;;;;19.60;65.20;;;;;;4985913;28;1491;-71
2023/11/25 12:37:30;;;;;;;;;;;19.60;65.20;;;;;;5000776;28;1219;-71
2023/11/25 12:39:55;;;;;;;;;;;19.60;65.30;;;;;;4984751;28;1293;-72
2023/11/25 12:42:24;;;;;;;;;;;19.60;65.20;;;;;;4982670;28;1969;-71
2023/11/25 12:44:55;;;;;;;;;;;19.70;65.20;;;;;;4985589;28;1831;-71
2023/11/25 12:47:20;;;;;;;;;;;19.60;65.20;;;;;;5002341;28;882;-71
2023/11/25 12:49:47;;;;;;;;;;;19.60;65.20;;;;;;5007428;28;1386;-71
2023/11/25 12:52:19;;;;;;;;;;;19.60;65.10;;;;;;5006078;28;1947;-71
2023/11/25 12:54:45;;;;;;;;;;;19.70;65.20;;;;;;4996618;28;1221;-71
2023/11/25 12:57:10;;;;;;;;;;;19.60;65.10;;;;;;5001170;28;1149;-71
2023/11/25 12:59:36;;;;;;;;;;;19.60;65.10;;;;;;4995406;28;1114;-71
2023/11/25 13:02:04;;;;;;;;;;;19.60;65.10;;;;;;5006611;28;1969;-73
2023/11/25 13:04:30;;;;;;;;;;;19.60;65.10;;;;;;5005210;28;1345;-72
2023/11/25 13:06:59;;;;;;;;;;;19.70;65.20;;;;;;4990782;28;1216;-71
2023/11/25 13:09:27;;;;;;;;;;;19.70;65.20;;;;;;4996273;28;1375;-71
2023/11/25 13:11:54;;;;;;;;;;;19.60;65.20;;;;;;5008456;28;1461;-72
2023/11/25 13:14:22;;;;;;;;;;;19.70;65.20;;;;;;5007485;28;1394;-71
2023/11/25 13:16:48;;;;;;;;;;;19.60;65.10;;;;;;5010423;28;1205;-71
2023/11/25 13:19:14;;;;;;;;;;;19.60;65.10;;;;;;5006613;28;836;-71
2023/11/25 13:21:42;;;;;;;;;;;19.60;65.10;;;;;;5009769;28;1906;-71
2023/11/25 13:24:08;;;;;;;;;;;19.60;65.20;;;;;;5008657;28;1352;-72
2023/11/25 13:26:33;;;;;;;;;;;19.60;65.10;;;;;;5001869;28;1244;-71
2023/11/25 13:28:59;;;;;;;;;;;19.60;65.10;;;;;;4994985;28;1149;-71
2023/11/25 13:31:25;;;;;;;;;;;19.60;65.10;;;;;;5008960;28;983;-72
2023/11/25 13:33:51;;;;;;;;;;;19.60;65.20;;;;;;5005848;28;1275;-71
2023/11/25 13:36:16;;;;;;;;;;;19.60;65.20;;;;;;4998624;28;1488;-73
2023/11/25 13:38:42;;;;;;;;;;;19.60;65.20;;;;;;5004724;28;1463;-71
2023/11/25 13:41:08;;;;;;;;;;;19.60;65.20;;;;;;4993463;28;1961;-71
2023/11/25 13:43:33;;;;;;;;;;;19.60;65.20;;;;;;4993252;28;1900;-72
2023/11/25 13:45:59;;;;;;;;;;;19.60;65.20;;;;;;5010881;28;1997;-74
2023/11/25 13:48:24;;;;;;;;;;;19.60;65.20;;;;;;5008610;28;1888;-72
2023/11/25 13:50:50;;;;;;;;;;;19.60;65.20;;;;;;5005673;28;1106;-72
2023/11/25 13:53:18;;;;;;;;;;;19.60;65.20;;;;;;4990946;28;1307;-72
2023/11/25 13:55:45;;;;;;;;;;;19.60;65.20;;;;;;5011036;28;1389;-72
2023/11/25 13:58:14;;;;;;;;;;;19.60;65.20;;;;;;4994703;28;1224;-72
2023/11/25 14:00:41;;;;;;;;;;;19.60;65.20;;;;;;5001859;28;1649;-71
2023/11/25 14:03:09;;;;;;;;;;;19.60;65.20;;;;;;4984180;28;1917;-71
2023/11/25 14:05:41;;;;;;;;;;;19.60;65.20;;;;;;5007085;28;1393;-70
2023/11/25 14:08:11;;;;;;;;;;;19.60;65.20;;;;;;4994524;28;1229;-71
2023/11/25 14:10:38;;;;;;;;;;;19.60;65.20;;;;;;4995009;28;1148;-71
2023/11/25 14:13:07;;;;;;;;;;;19.60;65.20;;;;;;5004405;28;1478;-73
2023/11/25 14:15:33;;;;;;;;;;;19.60;65.20;;;;;;5006328;28;1860;-70
2023/11/25 14:17:58;;;;;;;;;;;19.60;65.10;;;;;;5002438;28;1452;-71
2023/11/25 14:20:24;;;;;;;;;;;19.60;65.10;;;;;;5001556;28;1349;-70
2023/11/25 14:22:49;;;;;;;;;;;19.60;65.10;;;;;;4975115;28;1927;-70
2023/11/25 14:25:15;;;;;;;;;;;19.60;65.10;;;;;;5003424;28;1381;-70
2023/11/25 14:27:42;;;;;;;;;;;19.70;65.10;;;;;;5003233;28;1626;-71
2023/11/25 14:30:08;;;;;;;;;;;19.70;65.10;;;;;;4983965;28;1263;-70
2023/11/25 14:32:34;;;;;;;;;;;19.70;65.00;;;;;;5003041;28;1662;-70